Terminal Aerodrome Forecast
Issued by NWS Buffalo, NY

Home | Current Version | Previous Version | Text Only | Print | Product List | Glossary On
Versions: 1 2 3 4 5 6 7 8 9 10 11 12 13 14 15 16 17 18 19 20 21 22 23 24 25 26 27
000
FTUS41 KBUF 251700 RRA
TAFART
TAF
KART 251741Z 2518/2618 22015G26KT P6SM VCSH SCT015 OVC050
     FM252000 22015G28KT P6SM VCSH SCT015 OVC030
     FM252300 25014G27KT P6SM SCT035 BKN045
     FM260100 25014G26KT P6SM BKN110
     FM260300 26015G27KT P6SM BKN040
     FM260500 27014G23KT P6SM VCSH OVC035
     FM260900 27013G22KT 6SM -SHRA OVC030=

USA.gov is the U.S. government's official web portal to all federal, state and local government web resources and services.